Time;durP1;ratioP1;P1;durP2;ratioP2;P2;SDS_P1;SDS_P2;PMS_P1;PMS_P2;Temp;Humidity;BMP_temperature;BMP_pressure;BME280_temperature;BME280_humidity;BME280_pressure;Samples;Min_cycle;Max_cycle;Signal;HPM_P1;HPM_P2
2024/01/13 00:01:06;;;;;;;15.50;8.20;;;;;;;-1.74;100.00;99257.50;107519;1311;22263;-48
2024/01/13 00:03:31;;;;;;;16.40;8.30;;;;;;;-1.72;100.00;99249.58;107543;1292;22214;-50
2024/01/13 00:05:57;;;;;;;15.50;7.20;;;;;;;-1.67;100.00;99240.08;107494;1311;22261;-51
2024/01/13 00:08:22;;;;;;;13.70;7.30;;;;;;;-1.61;100.00;99234.20;107522;1311;22404;-49
2024/01/13 00:10:47;;;;;;;14.70;7.90;;;;;;;-1.55;100.00;99232.98;107530;1288;22290;-50
2024/01/13 00:13:15;;;;;;;14.70;9.00;;;;;;;-1.53;100.00;99227.45;107523;1304;23319;-50
2024/01/13 00:15:40;;;;;;;12.60;7.30;;;;;;;-1.49;100.00;99226.89;107533;1291;22262;-50
2024/01/13 00:18:06;;;;;;;15.50;7.50;;;;;;;-1.51;100.00;99221.07;107528;1291;22255;-49
2024/01/13 00:20:31;;;;;;;15.50;7.70;;;;;;;-1.49;100.00;99211.60;107541;1288;22370;-49
2024/01/13 00:22:57;;;;;;;14.30;7.80;;;;;;;-1.43;100.00;99210.00;107503;1311;22253;-48
2024/01/13 00:25:22;;;;;;;11.50;6.60;;;;;;;-1.43;100.00;99207.25;107509;1288;22240;-49
2024/01/13 00:27:47;;;;;;;13.50;8.20;;;;;;;-1.41;100.00;99208.95;107501;1288;22256;-49
2024/01/13 00:30:12;;;;;;;15.70;8.30;;;;;;;-1.45;100.00;99216.21;107517;1292;22297;-49
2024/01/13 00:32:38;;;;;;;12.70;6.80;;;;;;;-1.44;100.00;99217.23;107516;1288;23103;-47
2024/01/13 00:35:04;;;;;;;14.70;7.30;;;;;;;-1.43;100.00;99227.54;107506;1291;22198;-46
2024/01/13 00:37:29;;;;;;;13.30;7.30;;;;;;;-1.39;100.00;99226.99;107536;1288;22345;-49
2024/01/13 00:39:55;;;;;;;11.70;6.40;;;;;;;-1.42;100.00;99229.60;107498;1303;22337;-50
2024/01/13 00:42:20;;;;;;;14.00;6.70;;;;;;;-1.38;100.00;99223.36;107509;1311;22303;-49
2024/01/13 00:44:45;;;;;;;13.10;7.70;;;;;;;-1.39;100.00;99222.01;107513;1311;23017;-50
2024/01/13 00:47:11;;;;;;;14.10;7.20;;;;;;;-1.38;100.00;99223.38;107509;1295;22335;-48
2024/01/13 00:49:36;;;;;;;12.20;7.40;;;;;;;-1.41;100.00;99227.02;107518;1292;23845;-51
2024/01/13 00:52:01;;;;;;;13.70;7.10;;;;;;;-1.42;100.00;99224.09;107503;1311;22442;-50
2024/01/13 00:54:27;;;;;;;13.70;7.60;;;;;;;-1.43;100.00;99226.17;107519;1288;22246;-50
2024/01/13 00:56:53;;;;;;;12.90;7.90;;;;;;;-1.47;100.00;99226.38;107492;1311;22246;-50
2024/01/13 00:59:19;;;;;;;12.10;7.90;;;;;;;-1.45;100.00;99224.29;107530;1291;22262;-47
2024/01/13 01:01:44;;;;;;;15.50;8.10;;;;;;;-1.45;100.00;99218.44;107526;1311;22247;-48
2024/01/13 01:04:09;;;;;;;12.10;7.50;;;;;;;-1.43;100.00;99223.94;107507;1311;23036;-50
2024/01/13 01:06:35;;;;;;;13.90;8.40;;;;;;;-1.38;100.00;99224.23;107526;1288;23585;-50
2024/01/13 01:09:00;;;;;;;13.60;8.30;;;;;;;-1.37;100.00;99222.69;107503;1293;22242;-50
2024/01/13 01:11:26;;;;;;;12.40;8.00;;;;;;;-1.31;100.00;99221.42;107508;1311;22413;-49
2024/01/13 01:13:51;;;;;;;12.20;8.40;;;;;;;-1.32;100.00;99221.78;107504;1292;22251;-49
2024/01/13 01:16:17;;;;;;;15.20;8.00;;;;;;;-1.37;100.00;99230.75;107495;1288;22292;-47
2024/01/13 01:18:42;;;;;;;14.30;8.20;;;;;;;-1.34;100.00;99222.83;107510;1288;22301;-49
2024/01/13 01:21:07;;;;;;;14.40;8.50;;;;;;;-1.32;100.00;99230.05;107513;1292;22246;-49
2024/01/13 01:23:32;;;;;;;16.00;8.30;;;;;;;-1.31;100.00;99229.34;107517;1294;22247;-48
2024/01/13 01:25:58;;;;;;;16.10;8.70;;;;;;;-1.35;100.00;99232.63;107532;1294;22433;-48
2024/01/13 01:28:23;;;;;;;15.60;8.20;;;;;;;-1.39;100.00;99223.38;107508;1291;22331;-49
2024/01/13 01:30:49;;;;;;;17.30;10.10;;;;;;;-1.38;100.00;99218.74;107461;1311;23023;-50
2024/01/13 01:33:14;;;;;;;17.40;9.30;;;;;;;-1.33;100.00;99211.48;107493;1288;22268;-49
2024/01/13 01:35:39;;;;;;;15.00;9.20;;;;;;;-1.27;100.00;99210.03;107515;1311;22250;-47
2024/01/13 01:38:05;;;;;;;14.30;8.50;;;;;;;-1.25;100.00;99208.48;107509;1292;22899;-51
2024/01/13 01:40:31;;;;;;;16.50;9.40;;;;;;;-1.23;100.00;99208.97;107517;1297;22228;-47
2024/01/13 01:42:56;;;;;;;14.20;8.30;;;;;;;-1.24;100.00;99202.63;107523;1291;22295;-50
2024/01/13 01:45:23;;;;;;;14.20;7.70;;;;;;;-1.25;100.00;99201.41;107507;1299;22291;-50
2024/01/13 01:47:50;;;;;;;15.70;8.90;;;;;;;-1.24;100.00;99196.26;107505;1311;22207;-49
2024/01/13 01:50:15;;;;;;;15.40;9.50;;;;;;;-1.17;100.00;99191.70;107519;1291;23018;-49
2024/01/13 01:52:41;;;;;;;18.70;9.90;;;;;;;-1.14;100.00;99192.55;107499;1310;22239;-50
2024/01/13 01:55:07;;;;;;;14.20;8.40;;;;;;;-1.20;100.00;99191.73;107502;1291;22908;-47
2024/01/13 01:57:36;;;;;;;14.90;8.90;;;;;;;-1.20;100.00;99184.00;107502;1291;22995;-50
2024/01/13 02:00:01;;;;;;;13.90;8.40;;;;;;;-1.21;100.00;99180.58;107487;1288;22399;-47
2024/01/13 02:02:27;;;;;;;19.10;9.20;;;;;;;-1.21;100.00;99175.58;107503;1294;23165;-48
2024/01/13 02:04:52;;;;;;;17.80;9.40;;;;;;;-1.18;100.00;99174.86;107471;1310;22239;-49
2024/01/13 02:07:18;;;;;;;13.10;7.90;;;;;;;-1.19;100.00;99167.30;107574;1291;22238;-47
2024/01/13 02:09:44;;;;;;;12.40;8.40;;;;;;;-1.18;100.00;99166.78;107603;1288;22251;-50
2024/01/13 02:12:10;;;;;;;13.70;8.40;;;;;;;-1.16;100.00;99171.75;107614;1288;22274;-51
2024/01/13 02:14:35;;;;;;;10.70;7.20;;;;;;;-1.11;100.00;99174.45;107583;1310;22200;-51
2024/01/13 02:17:01;;;;;;;15.90;9.10;;;;;;;-1.10;100.00;99168.08;107593;1291;22281;-51
2024/01/13 02:19:31;;;;;;;13.10;8.50;;;;;;;-1.14;100.00;99170.88;107605;1291;22234;-48
2024/01/13 02:21:57;;;;;;;15.50;8.20;;;;;;;-1.14;100.00;99163.47;107587;1310;22396;-50
2024/01/13 02:24:22;;;;;;;14.10;8.90;;;;;;;-1.10;100.00;99156.38;107583;1310;22270;-48
2024/01/13 02:26:47;;;;;;;11.60;7.90;;;;;;;-1.03;100.00;99151.14;107580;1291;23117;-47
2024/01/13 02:29:12;;;;;;;14.40;8.70;;;;;;;-1.00;100.00;99146.46;107587;1291;22394;-51
2024/01/13 02:31:38;;;;;;;14.80;8.40;;;;;;;-0.97;100.00;99153.32;107592;1310;22196;-50
2024/01/13 02:34:03;;;;;;;16.10;9.10;;;;;;;-0.93;100.00;99148.11;107558;1291;22211;-49
2024/01/13 02:36:28;;;;;;;12.70;8.20;;;;;;;-0.87;100.00;99147.18;107584;1288;22409;-50
2024/01/13 02:38:53;;;;;;;15.10;9.10;;;;;;;-0.88;100.00;99148.05;107562;1310;23307;-50
2024/01/13 02:43:42;;;;;;;13.40;8.30;;;;;;;-0.87;100.00;99147.36;106923;1308;545442;-47
2024/01/13 02:46:07;;;;;;;16.20;8.60;;;;;;;-0.84;100.00;99141.30;107361;1301;22435;-47
2024/01/13 02:48:40;;;;;;;13.00;8.60;;;;;;;-0.80;100.00;99144.52;107375;1313;23332;-50
2024/01/13 02:51:11;;;;;;;11.50;7.60;;;;;;;-0.81;100.00;99139.02;107667;1310;22753;-49
2024/01/13 02:53:37;;;;;;;18.50;8.40;;;;;;;-0.80;100.00;99141.42;107659;1292;22221;-48
2024/01/13 02:56:02;;;;;;;12.20;8.10;;;;;;;-0.80;100.00;99144.52;107674;1310;22455;-47
2024/01/13 02:58:27;;;;;;;15.10;8.60;;;;;;;-0.79;100.00;99137.10;107688;1308;155553;-48
2024/01/13 03:00:52;;;;;;;18.10;8.70;;;;;;;-0.75;100.00;99134.83;107847;1308;22345;-47
2024/01/13 03:03:18;;;;;;;16.00;9.30;;;;;;;-0.77;100.00;99137.61;107868;1288;23127;-47
2024/01/13 03:05:43;;;;;;;13.40;8.60;;;;;;;-0.82;100.00;99130.95;107851;1289;22245;-51
2024/01/13 03:08:08;;;;;;;12.60;8.40;;;;;;;-0.79;100.00;99124.55;107856;1288;22927;-50
2024/01/13 03:10:33;;;;;;;12.30;7.50;;;;;;;-0.82;100.00;99121.48;107845;1289;23207;-48
2024/01/13 03:12:59;;;;;;;13.40;8.30;;;;;;;-0.85;100.00;99118.59;107845;1289;22422;-49
2024/01/13 03:15:24;;;;;;;14.40;8.30;;;;;;;-0.88;100.00;99121.05;107855;1289;22256;-49
2024/01/13 03:17:49;;;;;;;13.70;8.80;;;;;;;-0.92;100.00;99125.04;107823;1308;22331;-47
2024/01/13 03:20:14;;;;;;;13.20;8.40;;;;;;;-0.86;100.00;99130.13;107857;1289;22241;-50
2024/01/13 03:22:40;;;;;;;14.50;9.10;;;;;;;-0.84;100.00;99128.38;107837;1289;22317;-48
2024/01/13 03:25:05;;;;;;;14.90;8.40;;;;;;;-0.88;100.00;99127.93;107847;1288;22250;-48
2024/01/13 03:27:31;;;;;;;14.40;8.90;;;;;;;-0.88;100.00;99122.25;107849;1289;22883;-47
2024/01/13 03:29:56;;;;;;;17.90;8.20;;;;;;;-0.90;100.00;99117.10;107826;1289;22426;-50
2024/01/13 03:32:21;;;;;;;14.20;8.50;;;;;;;-0.91;100.00;99118.32;107849;1288;22474;-46
2024/01/13 03:34:46;;;;;;;15.50;9.20;;;;;;;-0.90;100.00;99117.62;107842;1299;22406;-50
2024/01/13 03:37:12;;;;;;;15.00;9.30;;;;;;;-0.91;100.00;99115.56;107844;1289;22626;-48
2024/01/13 03:39:37;;;;;;;15.60;9.10;;;;;;;-0.91;100.00;99108.69;107966;1289;22473;-48
2024/01/13 03:42:04;;;;;;;16.30;8.80;;;;;;;-0.94;100.00;99103.21;107976;1302;23043;-48
2024/01/13 03:44:29;;;;;;;12.70;8.70;;;;;;;-0.91;100.00;99096.81;108004;1295;23161;-50
2024/01/13 03:46:54;;;;;;;15.00;8.40;;;;;;;-0.91;100.00;99094.40;107989;1298;22433;-48
2024/01/13 03:49:20;;;;;;;15.30;9.50;;;;;;;-0.94;100.00;99086.69;108003;1288;22233;-48
2024/01/13 03:51:45;;;;;;;12.00;7.10;;;;;;;-0.93;100.00;99083.94;108008;1307;22485;-45
2024/01/13 03:54:10;;;;;;;15.00;9.60;;;;;;;-0.90;100.00;99080.27;108010;1289;22878;-48
2024/01/13 03:56:35;;;;;;;12.80;8.70;;;;;;;-0.89;100.00;99074.24;107984;1307;22906;-49
2024/01/13 03:59:01;;;;;;;14.80;9.60;;;;;;;-0.87;100.00;99066.98;107978;1307;22275;-47
2024/01/13 04:01:26;;;;;;;16.50;9.60;;;;;;;-0.87;100.00;99067.84;107959;1288;24520;-48
2024/01/13 04:03:52;;;;;;;14.20;9.00;;;;;;;-0.89;100.00;99065.11;107984;1288;22237;-47
2024/01/13 04:06:17;;;;;;;14.60;9.10;;;;;;;-0.84;100.00;99066.77;107992;1289;23046;-50
2024/01/13 04:08:44;;;;;;;16.90;9.10;;;;;;;-0.83;100.00;99077.61;107945;1305;22233;-47
2024/01/13 04:11:10;;;;;;;16.00;10.00;;;;;;;-0.78;100.00;99085.45;107961;1307;22721;-47
2024/01/13 04:13:36;;;;;;;14.70;8.80;;;;;;;-0.83;100.00;99081.73;107971;1307;23161;-49
2024/01/13 04:16:02;;;;;;;14.70;9.00;;;;;;;-0.79;100.00;99086.50;107967;1292;23148;-46
2024/01/13 04:18:27;;;;;;;15.10;8.80;;;;;;;-0.80;100.00;99084.29;107983;1285;22462;-48
2024/01/13 04:20:52;;;;;;;14.90;10.10;;;;;;;-0.82;100.00;99082.23;107988;1307;23226;-48
2024/01/13 04:23:17;;;;;;;15.40;9.40;;;;;;;-0.82;100.00;99087.58;108000;1289;22372;-49
2024/01/13 04:25:43;;;;;;;13.30;8.50;;;;;;;-0.81;100.00;99089.63;107980;1289;22242;-50
2024/01/13 04:28:08;;;;;;;13.70;8.90;;;;;;;-0.77;100.00;99102.48;107960;1289;22245;-50
2024/01/13 04:30:35;;;;;;;15.30;9.30;;;;;;;-0.79;100.00;99104.58;107949;1292;22460;-51
2024/01/13 04:33:00;;;;;;;16.70;10.40;;;;;;;-0.77;100.00;99110.57;107952;1307;22511;-48
2024/01/13 04:35:26;;;;;;;16.30;9.50;;;;;;;-0.74;100.00;99104.17;107981;1307;23110;-51
2024/01/13 04:37:51;;;;;;;16.10;9.50;;;;;;;-0.79;100.00;99099.23;107945;1288;23044;-47
2024/01/13 04:40:16;;;;;;;15.60;9.70;;;;;;;-0.78;100.00;99101.98;107961;1293;22263;-50
2024/01/13 04:42:41;;;;;;;16.00;9.30;;;;;;;-0.80;100.00;99109.75;107933;1307;22230;-46
2024/01/13 04:45:08;;;;;;;18.30;9.90;;;;;;;-0.84;100.00;99113.77;107946;1289;22394;-51
2024/01/13 04:47:33;;;;;;;12.50;9.00;;;;;;;-0.85;100.00;99120.31;107966;1307;22438;-47
2024/01/13 04:49:58;;;;;;;16.40;9.10;;;;;;;-0.86;100.00;99120.85;107948;1307;22256;-51
2024/01/13 04:52:24;;;;;;;18.30;11.10;;;;;;;-0.95;100.00;99119.05;107979;1297;22433;-49
2024/01/13 04:54:49;;;;;;;13.50;9.40;;;;;;;-0.90;100.00;99118.48;107967;1292;22923;-48
2024/01/13 04:57:14;;;;;;;15.70;9.60;;;;;;;-0.91;100.00;99119.35;107956;1289;22242;-46
2024/01/13 04:59:40;;;;;;;17.90;10.40;;;;;;;-0.88;100.00;99121.39;107966;1307;23185;-47
2024/01/13 05:02:05;;;;;;;18.50;10.20;;;;;;;-0.95;100.00;99117.86;107970;1286;22229;-49
2024/01/13 05:04:30;;;;;;;17.80;9.20;;;;;;;-0.90;100.00;99119.68;107968;1289;22253;-48
2024/01/13 05:06:56;;;;;;;16.20;9.90;;;;;;;-0.93;100.00;99110.60;107960;1307;23307;-47
2024/01/13 05:09:21;;;;;;;16.60;10.10;;;;;;;-0.90;100.00;99099.55;107950;1295;22328;-45
2024/01/13 05:11:46;;;;;;;17.70;10.40;;;;;;;-0.86;100.00;99096.92;107971;1307;22943;-47
2024/01/13 05:14:11;;;;;;;16.30;10.30;;;;;;;-0.82;100.00;99095.50;107970;1287;22285;-50
2024/01/13 05:16:37;;;;;;;17.30;10.30;;;;;;;-0.80;100.00;99097.17;107976;1289;22918;-51
2024/01/13 05:19:02;;;;;;;19.00;11.30;;;;;;;-0.75;100.00;99104.36;107960;1289;23150;-49
2024/01/13 05:21:27;;;;;;;18.60;11.70;;;;;;;-0.74;100.00;99099.52;107987;1289;22618;-48
2024/01/13 05:23:53;;;;;;;14.70;9.50;;;;;;;-0.68;100.00;99088.79;107967;1289;22316;-51
2024/01/13 05:26:18;;;;;;;18.70;11.40;;;;;;;-0.70;100.00;99083.14;107976;1292;22924;-50
2024/01/13 05:28:43;;;;;;;14.80;9.60;;;;;;;-0.71;100.00;99081.58;107969;1292;22456;-48
2024/01/13 05:31:09;;;;;;;16.90;9.40;;;;;;;-0.66;100.00;99087.20;107968;1300;22617;-49
2024/01/13 05:33:34;;;;;;;19.60;10.20;;;;;;;-0.64;100.00;99092.00;107968;1307;22296;-50
2024/01/13 05:35:59;;;;;;;15.00;9.00;;;;;;;-0.68;100.00;99093.08;108026;1307;22512;-50
2024/01/13 05:38:25;;;;;;;13.20;9.10;;;;;;;-0.72;100.00;99092.95;108022;1289;23110;-49
2024/01/13 05:40:50;;;;;;;16.00;9.50;;;;;;;-0.68;100.00;99086.73;108026;1288;22240;-48
2024/01/13 05:43:15;;;;;;;13.90;7.70;;;;;;;-0.70;100.00;99084.16;108008;1286;22996;-46
2024/01/13 05:45:41;;;;;;;18.40;9.90;;;;;;;-0.76;100.00;99083.20;108024;1307;23224;-47
2024/01/13 05:48:06;;;;;;;15.90;10.00;;;;;;;-0.78;100.00;99084.93;108002;1289;22239;-45
2024/01/13 05:50:32;;;;;;;19.90;10.50;;;;;;;-0.76;100.00;99096.11;108020;1288;22519;-45
2024/01/13 05:52:57;;;;;;;19.10;11.30;;;;;;;-0.82;100.00;99093.42;108051;1307;22512;-46
2024/01/13 05:55:22;;;;;;;18.30;10.40;;;;;;;-0.77;100.00;99088.72;108022;1306;23231;-48
2024/01/13 05:57:48;;;;;;;17.30;10.00;;;;;;;-0.76;100.00;99085.61;108017;1306;22308;-47
2024/01/13 06:00:14;;;;;;;15.60;9.80;;;;;;;-0.75;100.00;99089.91;107483;1289;22599;-44
2024/01/13 06:02:39;;;;;;;19.90;10.70;;;;;;;-0.78;100.00;99093.37;108014;1292;22218;-47
2024/01/13 06:05:06;;;;;;;18.40;10.40;;;;;;;-0.77;100.00;99089.23;108000;1305;22418;-47
2024/01/13 06:07:31;;;;;;;15.70;9.80;;;;;;;-0.75;100.00;99082.51;108012;1307;22267;-50
2024/01/13 06:09:57;;;;;;;15.20;9.70;;;;;;;-0.75;100.00;99087.31;108024;1289;23228;-49
2024/01/13 06:12:22;;;;;;;15.40;9.50;;;;;;;-0.74;100.00;99089.73;108022;1288;22224;-51
2024/01/13 06:14:48;;;;;;;15.50;9.80;;;;;;;-0.80;100.00;99081.52;108008;1285;22455;-47
2024/01/13 06:17:13;;;;;;;15.20;9.50;;;;;;;-0.78;100.00;99076.16;108030;1307;23023;-48
2024/01/13 06:19:39;;;;;;;15.40;8.90;;;;;;;-0.81;100.00;99087.04;108032;1307;23174;-51
2024/01/13 06:22:04;;;;;;;19.00;9.70;;;;;;;-0.83;100.00;99089.99;108045;1293;22428;-50
2024/01/13 06:24:29;;;;;;;21.40;12.20;;;;;;;-0.89;100.00;99090.08;108026;1296;22854;-47
2024/01/13 06:26:55;;;;;;;18.00;10.80;;;;;;;-0.91;100.00;99092.86;108020;1285;22712;-49
2024/01/13 06:29:20;;;;;;;23.50;11.50;;;;;;;-0.90;100.00;99081.14;108015;1306;23331;-48
2024/01/13 06:31:45;;;;;;;18.10;11.70;;;;;;;-0.90;100.00;99080.80;108020;1307;22469;-48
2024/01/13 06:34:10;;;;;;;17.70;10.80;;;;;;;-0.93;100.00;99070.33;108012;1307;22430;-47
2024/01/13 06:36:36;;;;;;;24.90;14.10;;;;;;;-0.90;100.00;99062.89;108022;1307;22273;-49
2024/01/13 06:39:01;;;;;;;25.20;13.30;;;;;;;-0.86;100.00;99056.98;108030;1307;22333;-50
2024/01/13 06:41:27;;;;;;;25.00;13.00;;;;;;;-0.83;100.00;99055.57;108014;1292;23365;-48
2024/01/13 06:43:52;;;;;;;26.50;13.10;;;;;;;-0.83;100.00;99054.70;108010;1307;22462;-46
2024/01/13 06:46:17;;;;;;;21.20;12.40;;;;;;;-0.83;100.00;99059.20;108013;1297;22568;-50
2024/01/13 06:48:44;;;;;;;16.40;10.10;;;;;;;-0.86;100.00;99059.73;108040;1289;22281;-48
2024/01/13 06:51:09;;;;;;;20.40;11.90;;;;;;;-0.94;100.00;99056.21;108025;1288;22428;-51
2024/01/13 06:53:34;;;;;;;20.20;10.90;;;;;;;-0.95;100.00;99055.04;108009;1295;22252;-47
2024/01/13 06:55:59;;;;;;;21.10;12.00;;;;;;;-0.94;100.00;99053.48;107998;1307;22260;-47
2024/01/13 06:58:25;;;;;;;19.00;11.50;;;;;;;-0.94;100.00;99054.69;108016;1283;22410;-48
2024/01/13 07:00:51;;;;;;;25.80;13.20;;;;;;;-0.92;100.00;99057.23;108042;1289;22359;-49
2024/01/13 07:03:16;;;;;;;21.20;12.80;;;;;;;-0.91;100.00;99055.67;108051;1307;22977;-47
2024/01/13 07:05:41;;;;;;;27.50;13.40;;;;;;;-0.88;100.00;99055.46;108034;1307;22431;-48
2024/01/13 07:08:08;;;;;;;21.90;12.00;;;;;;;-0.88;100.00;99060.12;108017;1307;22245;-48
2024/01/13 07:10:34;;;;;;;21.00;11.30;;;;;;;-0.85;100.00;99054.39;108039;1307;22483;-48
2024/01/13 07:12:59;;;;;;;19.80;12.40;;;;;;;-0.81;100.00;99057.44;108017;1288;22993;-47
2024/01/13 07:15:25;;;;;;;22.60;12.20;;;;;;;-0.82;100.00;99059.34;108006;1307;22406;-48
2024/01/13 07:17:52;;;;;;;19.40;10.00;;;;;;;-0.89;100.00;99059.44;108032;1285;22248;-50
2024/01/13 07:20:17;;;;;;;20.20;10.50;;;;;;;-0.92;100.00;99052.24;108038;1289;22250;-47
2024/01/13 07:22:42;;;;;;;22.40;12.60;;;;;;;-0.92;100.00;99047.59;108032;1288;22511;-49
2024/01/13 07:25:08;;;;;;;28.30;12.80;;;;;;;-0.91;100.00;99045.70;108042;1289;22311;-48
2024/01/13 07:27:33;;;;;;;26.70;12.20;;;;;;;-0.95;100.00;99042.65;108036;1307;22249;-50
2024/01/13 07:29:59;;;;;;;21.50;12.70;;;;;;;-1.00;100.00;99042.20;108011;1306;22553;-49
2024/01/13 07:32:24;;;;;;;26.90;13.10;;;;;;;-0.99;100.00;99041.33;108031;1295;22252;-49
2024/01/13 07:34:49;;;;;;;30.80;14.30;;;;;;;-0.91;100.00;99045.18;108014;1306;22441;-46
2024/01/13 07:37:15;;;;;;;20.30;12.10;;;;;;;-0.90;100.00;99045.00;108017;1307;22265;-47
2024/01/13 07:39:41;;;;;;;26.90;13.50;;;;;;;-0.93;100.00;99042.64;108048;1288;22263;-50
2024/01/13 07:42:06;;;;;;;34.70;16.30;;;;;;;-0.93;100.00;99047.77;107991;1306;23199;-48
2024/01/13 07:44:31;;;;;;;47.60;25.30;;;;;;;-0.89;100.00;99041.20;108021;1297;22435;-51
2024/01/13 07:47:01;;;;;;;43.80;22.10;;;;;;;-0.90;100.00;99041.38;108021;1289;22259;-48
2024/01/13 07:49:27;;;;;;;25.90;15.40;;;;;;;-0.84;100.00;99042.16;108011;1289;23198;-49
2024/01/13 07:51:53;;;;;;;30.30;14.60;;;;;;;-0.82;100.00;99046.10;108027;1306;22428;-47
2024/01/13 07:54:19;;;;;;;40.20;16.90;;;;;;;-0.86;100.00;99040.64;108023;1294;22971;-50
2024/01/13 07:56:45;;;;;;;36.30;15.20;;;;;;;-0.92;100.00;99044.68;108020;1297;22249;-51
2024/01/13 07:59:10;;;;;;;32.40;16.40;;;;;;;-1.01;100.00;99041.52;108044;1289;22335;-48
2024/01/13 08:01:35;;;;;;;32.10;16.60;;;;;;;-0.99;100.00;99031.52;108022;1286;22431;-48
2024/01/13 08:04:01;;;;;;;26.40;14.80;;;;;;;-0.97;100.00;99028.04;108026;1288;22527;-50
2024/01/13 08:06:26;;;;;;;29.90;15.70;;;;;;;-1.03;100.00;99034.30;108021;1306;22293;-47
2024/01/13 08:08:51;;;;;;;29.30;15.40;;;;;;;-1.05;100.00;99030.73;108020;1306;22233;-48
2024/01/13 08:11:17;;;;;;;29.70;14.60;;;;;;;-0.99;100.00;99027.20;107981;1306;22217;-47
2024/01/13 08:13:42;;;;;;;29.90;15.80;;;;;;;-0.98;100.00;99022.39;108020;1289;22326;-47
2024/01/13 08:16:09;;;;;;;27.30;15.00;;;;;;;-0.95;100.00;99023.36;108013;1288;23111;-48
2024/01/13 08:18:34;;;;;;;40.10;17.30;;;;;;;-0.94;100.00;99022.17;108024;1289;22414;-47
2024/01/13 08:21:00;;;;;;;35.90;17.10;;;;;;;-0.90;100.00;99022.98;108005;1307;23069;-50
2024/01/13 08:23:25;;;;;;;33.70;17.80;;;;;;;-0.93;100.00;99020.77;108029;1289;22313;-48
2024/01/13 08:25:50;;;;;;;36.40;17.70;;;;;;;-0.86;100.00;99022.57;108024;1306;23029;-47
2024/01/13 08:28:15;;;;;;;28.90;17.00;;;;;;;-0.88;100.00;99017.61;108009;1286;22326;-46
2024/01/13 08:30:41;;;;;;;34.70;17.70;;;;;;;-0.88;100.00;99019.33;108014;1307;22437;-46
2024/01/13 08:33:06;;;;;;;52.70;21.60;;;;;;;-0.85;100.00;99022.21;108015;1289;22252;-47
2024/01/13 08:35:31;;;;;;;42.80;20.00;;;;;;;-0.83;100.00;99017.20;107997;1297;22311;-48
2024/01/13 08:37:57;;;;;;;66.10;25.20;;;;;;;-0.85;100.00;99015.14;108044;1302;22247;-48
2024/01/13 08:40:22;;;;;;;52.00;19.20;;;;;;;-0.79;100.00;99017.31;108026;1287;23639;-48
2024/01/13 08:42:49;;;;;;;38.90;17.00;;;;;;;-0.77;100.00;99010.05;108016;1289;23215;-48
2024/01/13 08:45:14;;;;;;;43.40;19.30;;;;;;;-0.74;100.00;99000.38;108043;1306;22260;-50
2024/01/13 08:47:40;;;;;;;36.90;17.30;;;;;;;-0.68;100.00;99000.29;108053;1285;22247;-50
2024/01/13 08:50:06;;;;;;;36.50;17.30;;;;;;;-0.66;100.00;99001.46;108033;1285;22318;-50
2024/01/13 08:52:31;;;;;;;39.00;18.70;;;;;;;-0.63;100.00;98997.45;108027;1286;23003;-51
2024/01/13 08:54:57;;;;;;;30.00;16.10;;;;;;;-0.57;100.00;98998.23;108015;1289;22237;-48
2024/01/13 08:57:22;;;;;;;27.20;14.50;;;;;;;-0.55;100.00;98998.37;108032;1286;22473;-48
2024/01/13 08:59:47;;;;;;;35.90;16.80;;;;;;;-0.54;100.00;98994.40;108036;1288;22238;-50
2024/01/13 09:02:12;;;;;;;31.10;16.30;;;;;;;-0.52;100.00;98998.33;108040;1289;22518;-49
2024/01/13 09:04:38;;;;;;;33.80;16.60;;;;;;;-0.48;100.00;98998.95;108027;1307;22253;-51
2024/01/13 09:07:04;;;;;;;37.90;17.20;;;;;;;-0.43;100.00;98998.71;108027;1286;22256;-50
2024/01/13 09:09:30;;;;;;;46.90;22.20;;;;;;;-0.40;100.00;99001.76;108036;1286;22329;-47
2024/01/13 09:11:55;;;;;;;34.50;17.20;;;;;;;-0.34;100.00;98997.20;108028;1307;22212;-51
2024/01/13 09:14:20;;;;;;;31.30;16.30;;;;;;;-0.34;100.00;98997.71;108026;1307;22895;-50
2024/01/13 09:16:46;;;;;;;32.80;16.00;;;;;;;-0.33;100.00;98991.84;106910;1289;22574;-47
2024/01/13 09:19:11;;;;;;;30.50;15.10;;;;;;;-0.31;100.00;98987.84;106943;1289;23141;-46
2024/01/13 09:21:38;;;;;;;30.30;15.20;;;;;;;-0.28;100.00;98987.98;106931;1299;22584;-45
2024/01/13 09:24:03;;;;;;;40.40;17.50;;;;;;;-0.30;100.00;98984.38;108035;1301;22396;-49
2024/01/13 09:26:30;;;;;;;30.60;15.90;;;;;;;-0.30;100.00;98980.95;108025;1307;22479;-51
2024/01/13 09:28:55;;;;;;;32.10;16.10;;;;;;;-0.29;100.00;98976.42;108005;1307;23094;-48
2024/01/13 09:31:21;;;;;;;25.60;15.40;;;;;;;-0.29;100.00;98970.59;108011;1291;22217;-48
2024/01/13 09:33:46;;;;;;;31.30;16.50;;;;;;;-0.28;100.00;98962.29;107995;1307;23331;-48
2024/01/13 09:36:12;;;;;;;32.40;16.00;;;;;;;-0.26;100.00;98955.71;108007;1307;22555;-50
2024/01/13 09:38:37;;;;;;;33.60;15.60;;;;;;;-0.17;100.00;98945.92;108028;1307;23234;-51
2024/01/13 09:41:03;;;;;;;26.50;14.20;;;;;;;-0.11;100.00;98942.20;108011;1306;22338;-49
2024/01/13 09:43:34;;;;;;;33.10;15.80;;;;;;;-0.08;100.00;98938.01;108022;1307;22475;-50
2024/01/13 09:46:00;;;;;;;37.20;18.10;;;;;;;-0.04;100.00;98935.36;108010;1292;22402;-50
2024/01/13 09:48:26;;;;;;;34.40;17.90;;;;;;;-0.01;100.00;98931.85;108033;1307;22240;-49
2024/01/13 09:50:53;;;;;;;34.70;17.80;;;;;;;0.03;100.00;98928.52;108021;1283;22242;-51
2024/01/13 09:53:28;;;;;;;34.00;18.40;;;;;;;0.06;100.00;98922.58;108033;1305;22236;-47
2024/01/13 09:55:57;;;;;;;35.30;17.50;;;;;;;0.09;100.00;98914.60;108005;1307;22265;-48
2024/01/13 09:58:22;;;;;;;29.80;16.60;;;;;;;0.02;100.00;98907.33;108013;1307;22334;-52
2024/01/13 10:00:49;;;;;;;33.60;17.40;;;;;;;0.04;100.00;98907.80;108017;1288;22305;-52
2024/01/13 10:03:14;;;;;;;42.30;19.10;;;;;;;0.03;100.00;98905.42;108011;1307;22252;-48
2024/01/13 10:05:39;;;;;;;44.60;19.60;;;;;;;0.03;100.00;98906.80;108030;1307;22444;-48
2024/01/13 10:08:05;;;;;;;33.40;16.70;;;;;;;0.01;100.00;98904.77;108032;1307;22479;-48
2024/01/13 10:10:32;;;;;;;35.30;18.70;;;;;;;0.04;100.00;98900.58;108027;1300;22299;-50
2024/01/13 10:12:58;;;;;;;36.20;18.80;;;;;;;0.04;100.00;98894.54;108033;1289;22225;-51
2024/01/13 10:15:23;;;;;;;37.50;19.20;;;;;;;0.02;100.00;98891.29;108015;1289;22843;-46
2024/01/13 10:17:53;;;;;;;34.40;18.00;;;;;;;0.02;100.00;98885.25;108017;1307;22240;-49
2024/01/13 10:20:18;;;;;;;37.30;18.20;;;;;;;0.04;100.00;98879.89;108013;1288;22989;-51
2024/01/13 10:22:44;;;;;;;39.40;21.50;;;;;;;0.04;100.00;98880.23;108023;1307;22212;-48
2024/01/13 10:25:09;;;;;;;48.20;24.90;;;;;;;0.04;100.00;98888.52;108038;1286;22239;-47
2024/01/13 10:27:38;;;;;;;41.80;22.40;;;;;;;0.05;100.00;98883.48;108028;1288;22439;-47
2024/01/13 10:30:10;;;;;;;45.60;21.50;;;;;;;0.06;100.00;98878.12;108020;1307;22290;-47
2024/01/13 10:32:36;;;;;;;42.10;21.30;;;;;;;0.05;100.00;98877.80;108049;1287;22711;-46
2024/01/13 10:35:01;;;;;;;43.30;22.30;;;;;;;0.05;100.00;98875.73;108062;1288;22220;-49
2024/01/13 10:37:27;;;;;;;28.70;15.00;;;;;;;0.07;100.00;98869.84;108042;1289;23043;-47
2024/01/13 10:39:53;;;;;;;24.50;14.10;;;;;;;0.03;100.00;98872.33;108036;1290;22397;-55
2024/01/13 10:42:25;;;;;;;30.80;12.90;;;;;;;-0.01;100.00;98870.50;108035;1307;22431;-50
2024/01/13 10:44:57;;;;;;;98.40;41.20;;;;;;;0.03;100.00;98865.95;108027;1307;22262;-47
2024/01/13 10:47:29;;;;;;;126.50;45.80;;;;;;;0.03;100.00;98857.32;108011;1289;22244;-47
2024/01/13 10:49:57;;;;;;;94.70;38.80;;;;;;;-0.03;99.05;98848.30;108019;1289;22227;-49
2024/01/13 10:52:32;;;;;;;29.70;16.00;;;;;;;0.03;98.89;98844.58;108040;1306;22243;-48
2024/01/13 10:55:02;;;;;;;19.60;9.90;;;;;;;0.09;99.39;98834.27;108035;1286;23153;-48
2024/01/13 10:57:29;;;;;;;13.60;8.50;;;;;;;0.15;98.90;98831.75;108029;1285;22210;-50
2024/01/13 10:59:54;;;;;;;27.30;13.90;;;;;;;0.13;98.17;98829.73;108014;1289;22857;-47
2024/01/13 11:02:20;;;;;;;19.70;10.50;;;;;;;0.15;98.15;98822.27;108016;1306;22661;-47